Time;durP1;ratioP1;P1;durP2;ratioP2;P2;SDS_P1;SDS_P2;PMS_P1;PMS_P2;Temp;Humidity;BMP_temperature;BMP_pressure;BME280_temperature;BME280_humidity;BME280_pressure;Samples;Min_cycle;Max_cycle;Signal;HPM_P1;HPM_P2
2022/05/19 00:02:05;;;;;;;3.83;3.42;;;;;;;23.69;59.04;99936.59;4942958;28;19948;-91
2022/05/19 00:04:32;;;;;;;5.77;3.47;;;;;;;23.69;58.14;99926.50;4943274;28;20038;-92
2022/05/19 00:06:57;;;;;;;4.00;3.50;;;;;;;23.57;57.50;99928.28;4943139;28;20057;-92
2022/05/19 00:09:23;;;;;;;3.95;3.55;;;;;;;23.53;57.80;99927.00;4943095;28;20105;-91
2022/05/19 00:11:49;;;;;;;4.00;3.30;;;;;;;23.45;57.46;99917.22;4942726;28;20050;-92
2022/05/19 00:14:15;;;;;;;4.55;3.17;;;;;;;23.45;57.03;99919.09;4942641;28;20053;-91
2022/05/19 00:16:40;;;;;;;3.85;3.20;;;;;;;23.46;57.10;99909.84;4942573;28;20051;-92
2022/05/19 00:19:06;;;;;;;4.28;3.08;;;;;;;23.34;56.63;99900.72;4942500;28;20031;-92
2022/05/19 00:21:31;;;;;;;6.03;3.05;;;;;;;23.34;55.51;99900.72;4958578;28;20118;-92
2022/05/19 00:23:57;;;;;;;3.30;2.95;;;;;;;23.35;55.63;99889.59;4958304;28;20481;-92
2022/05/19 00:26:22;;;;;;;3.15;2.80;;;;;;;23.31;55.34;99891.09;4943133;28;20033;-92
2022/05/19 00:28:48;;;;;;;5.38;2.40;;;;;;;23.34;53.91;99900.72;4942331;28;20109;-92
2022/05/19 00:31:13;;;;;;;4.82;2.33;;;;;;;23.36;53.78;99891.25;4943082;28;20027;-93
2022/05/19 00:33:39;;;;;;;3.35;2.40;;;;;;;23.34;53.23;99887.06;4942490;28;20131;-93
2022/05/19 00:36:24;;;;;;;6.90;2.60;;;;;;;23.43;53.58;99897.50;4942546;28;20113;-91
2022/05/19 00:38:49;;;;;;;4.20;2.28;;;;;;;23.48;53.11;99896.81;4943773;28;20030;-91
2022/05/19 00:41:15;;;;;;;2.90;2.38;;;;;;;23.55;53.24;99894.91;4958564;28;20558;-93
2022/05/19 00:43:54;;;;;;;4.38;2.20;;;;;;;23.61;52.82;99880.34;4942670;28;20082;-92
2022/05/19 00:46:24;;;;;;;3.13;2.13;;;;;;;23.58;52.18;99883.53;4942478;28;20026;-92
2022/05/19 00:48:53;;;;;;;3.70;2.40;;;;;;;23.57;51.42;99881.84;4942452;28;20023;-92
2022/05/19 00:51:21;;;;;;;2.88;2.30;;;;;;;23.57;51.24;99883.75;4942264;28;20023;-92
2022/05/19 00:53:50;;;;;;;2.38;2.17;;;;;;;23.55;51.47;99878.50;4942477;28;20034;-92
2022/05/19 00:56:22;;;;;;;1.92;1.83;;;;;;;23.55;51.09;99878.50;4942215;28;20381;-93
2022/05/19 00:58:56;;;;;;;2.50;2.13;;;;;;;23.53;51.37;99870.50;4960788;28;20019;-91
2022/05/19 01:01:22;;;;;;;2.58;2.08;;;;;;;23.58;51.32;99877.22;4946302;28;20053;-92
2022/05/19 01:04:01;;;;;;;2.28;2.08;;;;;;;23.55;50.80;99875.78;4945955;28;20027;-92
2022/05/19 01:06:27;;;;;;;2.90;1.80;;;;;;;23.66;51.00;99875.06;4945854;28;20058;-92
2022/05/19 01:09:00;;;;;;;2.42;2.20;;;;;;;23.66;51.74;99871.50;4946115;28;20121;-93
2022/05/19 01:11:26;;;;;;;2.17;1.85;;;;;;;23.64;50.96;99877.16;4945987;28;20023;-92
2022/05/19 01:13:51;;;;;;;2.42;2.20;;;;;;;23.66;51.43;99882.44;4962196;28;20491;-92
2022/05/19 01:16:17;;;;;;;2.33;2.08;;;;;;;23.61;50.42;99882.25;4945835;28;20438;-92
2022/05/19 01:18:43;;;;;;;2.15;1.85;;;;;;;23.60;50.53;99886.88;4945811;28;20026;-92
2022/05/19 01:21:10;;;;;;;2.92;1.95;;;;;;;23.63;50.71;99885.56;4945412;28;20057;-92
2022/05/19 01:23:44;;;;;;;3.17;2.00;;;;;;;23.55;50.21;99882.06;4961900;28;20489;-92
2022/05/19 01:26:28;;;;;;;2.08;1.80;;;;;;;23.54;51.01;99880.38;4961921;28;20035;-92
2022/05/19 01:28:58;;;;;;;2.95;2.10;;;;;;;23.54;51.35;99877.66;4961971;28;20054;-92
2022/05/19 01:31:31;;;;;;;2.78;2.10;;;;;;;23.52;51.55;99870.75;4945515;28;20049;-92
2022/05/19 01:33:57;;;;;;;3.10;2.00;;;;;;;23.47;51.47;99867.84;4945785;28;20041;-92
2022/05/19 01:36:22;;;;;;;3.28;2.10;;;;;;;23.45;51.60;99868.06;4945995;28;20373;-92
2022/05/19 01:38:55;;;;;;;2.00;1.90;;;;;;;23.41;52.18;99869.56;4945868;28;20031;-92
2022/05/19 01:41:54;;;;;;;2.10;1.90;;;;;;;23.39;52.56;99863.50;4961634;28;20034;-92
2022/05/19 01:44:35;;;;;;;2.22;1.80;;;;;;;23.42;52.32;99862.22;4961148;28;20110;-91
2022/05/19 01:47:23;;;;;;;2.63;2.15;;;;;;;23.37;53.10;99864.78;4961308;28;20023;-92
2022/05/19 01:50:16;;;;;;;2.88;1.92;;;;;;;23.34;53.58;99866.06;4945404;28;20030;-92
2022/05/19 01:53:08;;;;;;;3.60;2.00;;;;;;;23.31;53.54;99861.06;4922406;28;20035;-92
2022/05/19 01:55:56;;;;;;;2.25;1.92;;;;;;;23.31;54.06;99865.69;4945261;28;20469;-92
2022/05/19 01:58:27;;;;;;;3.42;1.90;;;;;;;23.22;53.59;99851.50;4945607;28;20027;-92
2022/05/19 02:00:56;;;;;;;3.70;1.88;;;;;;;23.19;53.32;99846.47;4945130;28;20034;-92
2022/05/19 02:03:28;;;;;;;2.65;1.98;;;;;;;23.19;54.50;99852.78;4945245;28;20358;-92
2022/05/19 02:05:59;;;;;;;2.20;2.00;;;;;;;23.15;54.37;99843.31;4944964;28;20030;-92
2022/05/19 02:08:31;;;;;;;4.28;1.90;;;;;;;23.13;53.97;99845.44;4944685;28;20064;-92
2022/05/19 02:11:00;;;;;;;2.90;2.15;;;;;;;23.13;54.05;99841.88;4945005;28;20053;-92
2022/05/19 02:13:26;;;;;;;3.20;2.20;;;;;;;23.12;53.81;99857.41;4944804;28;20031;-92
2022/05/19 02:15:52;;;;;;;2.15;1.80;;;;;;;23.09;53.31;99849.69;4944925;28;20039;-92
2022/05/19 02:18:20;;;;;;;1.95;1.80;;;;;;;23.09;53.99;99851.56;4944626;28;20213;-92
2022/05/19 02:20:47;;;;;;;2.33;2.10;;;;;;;23.08;53.49;99855.34;4944665;28;20050;-91
2022/05/19 02:23:14;;;;;;;3.55;1.92;;;;;;;23.06;53.97;99844.66;4944860;28;20039;-91
2022/05/19 02:25:48;;;;;;;1.95;1.73;;;;;;;23.03;53.99;99847.00;4944769;28;20110;-92
2022/05/19 02:28:20;;;;;;;2.38;2.17;;;;;;;23.00;54.25;99851.00;4944415;28;20042;-92
2022/05/19 02:30:46;;;;;;;3.70;2.08;;;;;;;22.93;54.83;99853.78;4944405;28;20031;-92
2022/05/19 02:33:13;;;;;;;3.17;2.38;;;;;;;22.88;54.48;99839.97;4960823;28;20041;-92
2022/05/19 02:35:39;;;;;;;2.60;2.30;;;;;;;22.83;54.60;99845.25;4944552;28;20035;-92
2022/05/19 02:38:04;;;;;;;2.28;2.08;;;;;;;22.78;54.24;99842.31;4944314;28;20445;-91
2022/05/19 02:40:33;;;;;;;3.20;2.20;;;;;;;22.78;55.26;99846.94;4944361;28;20047;-92
2022/05/19 02:42:59;;;;;;;3.33;2.30;;;;;;;22.78;54.47;99845.06;4944146;28;20493;-92
2022/05/19 02:45:25;;;;;;;3.95;2.30;;;;;;;22.79;54.47;99830.38;4944635;28;20485;-93
2022/05/19 02:47:51;;;;;;;2.47;2.20;;;;;;;22.79;53.63;99829.53;4944207;28;20031;-92
2022/05/19 02:50:18;;;;;;;3.78;2.17;;;;;;;22.73;54.19;99828.53;4944076;28;20035;-92
2022/05/19 02:52:44;;;;;;;3.20;2.15;;;;;;;22.82;54.00;99829.13;4960694;28;20033;-92
2022/05/19 02:55:10;;;;;;;2.25;1.98;;;;;;;22.81;54.45;99822.00;4943999;28;20026;-92
2022/05/19 02:57:35;;;;;;;2.13;1.92;;;;;;;22.80;54.03;99817.56;4943886;28;20090;-92
2022/05/19 03:00:01;;;;;;;2.20;1.98;;;;;;;22.81;54.20;99816.53;4960005;28;20401;-92
2022/05/19 03:02:26;;;;;;;3.67;2.20;;;;;;;22.79;53.29;99813.16;4943967;28;20027;-93
2022/05/19 03:04:51;;;;;;;2.65;1.90;;;;;;;22.78;53.01;99806.88;4943860;28;20461;-92
2022/05/19 03:07:17;;;;;;;2.55;2.17;;;;;;;22.78;52.51;99815.06;4960206;28;20086;-92
2022/05/19 03:09:45;;;;;;;2.25;1.95;;;;;;;22.80;53.53;99817.56;4944080;28;20027;-93
2022/05/19 03:12:11;;;;;;;3.33;2.05;;;;;;;22.84;52.60;99818.81;4944575;28;20109;-92
2022/05/19 03:14:36;;;;;;;2.78;2.25;;;;;;;22.88;52.57;99817.31;4943788;28;20049;-93
2022/05/19 03:17:05;;;;;;;4.13;2.17;;;;;;;22.92;52.04;99813.94;4959863;28;20023;-92
2022/05/19 03:19:30;;;;;;;;;;;;;;;22.92;51.78;99824.00;4944250;28;20026;-93
2022/05/19 03:21:55;;;;;;;2.40;1.93;;;;;;;22.97;52.14;99816.00;4942793;28;19922;-93
2022/05/19 03:24:21;;;;;;;2.85;1.90;;;;;;;23.01;51.33;99822.66;4959196;28;20298;-92
2022/05/19 03:26:46;;;;;;;2.63;1.85;;;;;;;23.07;51.97;99819.06;4959402;28;20054;-92
2022/05/19 03:29:11;;;;;;;3.00;1.83;;;;;;;23.09;51.71;99816.09;4959348;28;20023;-92
2022/05/19 03:31:38;;;;;;;2.83;1.80;;;;;;;23.08;51.34;99822.63;4959439;28;20034;-92
2022/05/19 03:34:04;;;;;;;2.40;2.20;;;;;;;23.06;52.18;99822.00;4959842;28;20034;-92
2022/05/19 03:36:30;;;;;;;2.22;1.92;;;;;;;23.21;52.24;99825.25;4943288;28;20106;-92
2022/05/19 03:38:55;;;;;;;3.35;2.20;;;;;;;23.14;51.40;99824.44;4943906;28;20450;-92
2022/05/19 03:41:21;;;;;;;4.43;2.13;;;;;;;23.11;51.73;99828.47;4959683;28;20023;-92
2022/05/19 03:43:47;;;;;;;3.13;1.75;;;;;;;23.13;51.15;99831.81;4959477;28;20027;-92
2022/05/19 03:46:12;;;;;;;2.50;2.00;;;;;;;23.18;52.43;99828.44;4943003;28;20080;-91
2022/05/19 03:48:38;;;;;;;2.13;1.92;;;;;;;23.13;51.54;99836.41;4959241;28;20031;-92
2022/05/19 03:51:09;;;;;;;2.25;1.80;;;;;;;23.14;51.84;99832.63;4943038;28;20025;-93
2022/05/19 03:53:34;;;;;;;2.90;2.10;;;;;;;23.09;52.07;99827.84;4959211;28;20022;-92
2022/05/19 03:56:00;;;;;;;2.70;1.90;;;;;;;23.10;51.44;99828.69;4943078;28;20529;-91
2022/05/19 03:58:25;;;;;;;3.03;1.90;;;;;;;23.10;51.19;99829.53;4943184;28;20027;-92
2022/05/19 04:00:51;;;;;;;2.35;1.77;;;;;;;23.09;51.82;99835.19;4943215;28;20026;-92
2022/05/19 04:03:16;;;;;;;2.00;1.90;;;;;;;23.07;51.33;99831.84;4958863;28;20101;-91
2022/05/19 04:05:41;;;;;;;2.40;2.00;;;;;;;23.06;51.31;99836.47;4957237;28;20023;-84
2022/05/19 04:08:07;;;;;;;2.20;2.00;;;;;;;23.05;51.22;99840.25;4956734;28;20042;-84
2022/05/19 04:10:32;;;;;;;2.45;1.90;;;;;;;23.04;51.19;99844.06;4956787;28;20035;-84
2022/05/19 04:12:58;;;;;;;5.30;1.80;;;;;;;23.02;51.07;99848.91;4940662;28;20039;-84
2022/05/19 04:15:24;;;;;;;2.38;1.90;;;;;;;23.01;51.28;99847.22;4940625;28;20030;-84
2022/05/19 04:17:49;;;;;;;2.95;1.90;;;;;;;23.03;51.69;99847.00;4956659;28;20023;-84
2022/05/19 04:20:15;;;;;;;1.88;1.73;;;;;;;22.98;51.62;99849.56;4956579;28;20525;-85
2022/05/19 04:22:41;;;;;;;2.65;1.95;;;;;;;23.00;51.58;99858.34;4956386;28;20062;-84
2022/05/19 04:25:07;;;;;;;2.90;2.15;;;;;;;22.86;52.51;99863.91;4956039;28;20114;-84
2022/05/19 04:27:33;;;;;;;2.97;1.98;;;;;;;22.77;52.78;99870.66;4940551;28;20037;-84
2022/05/19 04:29:59;;;;;;;2.20;2.00;;;;;;;22.57;53.08;99946.25;4956729;28;20551;-86
2022/05/19 04:32:25;;;;;;;2.30;2.10;;;;;;;22.26;54.61;99956.00;4940385;28;20039;-86
2022/05/19 04:34:50;;;;;;;5.40;2.47;;;;;;;22.24;54.41;99943.66;4956039;28;20145;-84
2022/05/19 04:37:15;;;;;;;4.50;2.50;;;;;;;22.36;54.67;99969.19;4956696;28;20030;-84
2022/05/19 04:39:41;;;;;;;4.72;2.65;;;;;;;22.17;54.29;99970.06;4973679;28;20139;-83
2022/05/19 04:42:08;;;;;;;4.47;2.90;;;;;;;22.22;55.64;99976.53;4956357;28;20026;-84
2022/05/19 04:44:33;;;;;;;3.38;2.47;;;;;;;22.40;54.61;99975.03;4940443;28;20115;-84
2022/05/19 04:46:59;;;;;;;3.00;2.53;;;;;;;22.35;54.40;99988.47;4940145;28;20032;-84
2022/05/19 04:49:24;;;;;;;4.03;2.63;;;;;;;22.27;54.46;99986.81;4956170;28;20062;-83
2022/05/19 04:51:49;;;;;;;3.35;2.30;;;;;;;22.16;55.25;99968.38;4940213;28;20031;-83
2022/05/19 04:54:15;;;;;;;4.25;2.58;;;;;;;22.40;55.31;99950.50;4956083;28;20027;-83
2022/05/19 04:56:41;;;;;;;3.10;2.33;;;;;;;22.51;55.74;99980.66;4956208;28;20027;-83
2022/05/19 04:59:13;;;;;;;5.07;2.60;;;;;;;22.36;55.76;99981.97;4934323;29;20015;-83
2022/05/19 05:01:40;;;;;;;3.45;2.50;;;;;;;22.43;55.10;99978.19;4934302;29;20130;-83
2022/05/19 05:04:05;;;;;;;2.88;2.58;;;;;;;22.53;55.29;99954.03;4935452;28;20026;-84
2022/05/19 05:06:32;;;;;;;3.83;2.60;;;;;;;22.62;55.75;99971.81;4954993;28;20077;-86
2022/05/19 05:08:57;;;;;;;4.35;2.65;;;;;;;22.61;56.13;99985.66;4954911;28;20031;-84
2022/05/19 05:11:22;;;;;;;3.33;2.85;;;;;;;22.58;56.57;99991.53;4940028;28;20031;-83
2022/05/19 05:13:48;;;;;;;3.75;3.00;;;;;;;22.59;56.19;99982.31;4957057;28;20050;-83
2022/05/19 05:16:13;;;;;;;5.07;2.60;;;;;;;22.67;55.77;99984.78;4957382;28;20027;-84
2022/05/19 05:18:38;;;;;;;5.80;2.60;;;;;;;22.68;56.39;100002.81;4957378;28;20440;-83
2022/05/19 05:21:05;;;;;;;3.05;2.60;;;;;;;22.68;56.28;100005.56;4956838;28;20034;-84
2022/05/19 05:23:31;;;;;;;4.43;2.70;;;;;;;22.69;56.12;99979.97;4941089;28;20066;-83
2022/05/19 05:25:56;;;;;;;4.28;2.47;;;;;;;22.69;57.16;99973.66;4940952;28;20636;-83
2022/05/19 05:28:21;;;;;;;4.22;2.75;;;;;;;22.50;57.21;99987.16;4956792;28;20072;-84
2022/05/19 05:30:49;;;;;;;3.97;2.72;;;;;;;22.49;57.98;99990.94;4940724;28;20057;-84
2022/05/19 05:33:15;;;;;;;5.03;2.85;;;;;;;22.56;57.32;99982.75;4941309;28;20031;-85
2022/05/19 05:35:41;;;;;;;4.25;2.67;;;;;;;22.64;57.47;99982.50;4940471;28;20392;-85
2022/05/19 05:38:07;;;;;;;3.53;2.50;;;;;;;22.70;58.09;99986.25;4941047;28;20437;-84
2022/05/19 05:40:33;;;;;;;2.50;2.30;;;;;;;22.74;58.70;99976.63;4956935;28;20138;-85
2022/05/19 05:43:19;;;;;;;2.92;2.45;;;;;;;22.80;57.74;99968.44;4940789;28;20504;-85
2022/05/19 05:45:45;;;;;;;4.68;2.80;;;;;;;22.85;57.93;99970.50;4944785;28;20035;-92
2022/05/19 05:48:11;;;;;;;3.63;2.70;;;;;;;22.89;58.16;99960.81;4961008;28;20018;-91
2022/05/19 05:50:36;;;;;;;3.20;2.80;;;;;;;22.91;58.59;99962.28;4945489;28;20358;-92
2022/05/19 05:53:03;;;;;;;3.65;2.50;;;;;;;22.92;58.44;99969.41;4945129;28;20023;-91
2022/05/19 05:55:28;;;;;;;4.63;3.17;;;;;;;22.97;58.09;99968.75;4945359;28;20033;-90
2022/05/19 05:57:54;;;;;;;4.13;2.58;;;;;;;22.99;57.85;99965.81;4945116;28;20109;-92
2022/05/19 06:00:20;;;;;;;5.00;2.70;;;;;;;23.02;58.92;99965.38;4945287;28;20054;-91
2022/05/19 06:02:45;;;;;;;3.35;2.80;;;;;;;23.04;58.50;99960.53;4944794;28;20027;-91
2022/05/19 06:05:12;;;;;;;5.47;2.55;;;;;;;23.07;58.75;99951.91;4945009;28;20466;-91
2022/05/19 06:07:38;;;;;;;5.20;2.83;;;;;;;23.05;58.63;99962.19;4960709;28;20027;-91
2022/05/19 06:10:03;;;;;;;5.22;2.80;;;;;;;22.97;59.18;99960.56;4944993;28;20021;-90
2022/05/19 06:12:29;;;;;;;3.65;2.50;;;;;;;22.99;59.00;99965.81;4945037;28;20030;-91
2022/05/19 06:14:56;;;;;;;3.58;2.92;;;;;;;23.04;59.62;99960.53;4945197;28;20034;-92
2022/05/19 06:17:23;;;;;;;4.80;2.73;;;;;;;23.09;60.08;99961.53;4961243;28;20019;-90
2022/05/19 06:19:49;;;;;;;3.63;2.78;;;;;;;23.10;59.78;99974.13;4944779;28;20062;-88
2022/05/19 06:22:15;;;;;;;3.70;2.95;;;;;;;23.08;60.02;99962.59;4948247;28;20021;-89
2022/05/19 06:24:40;;;;;;;3.17;2.88;;;;;;;23.10;59.91;99962.38;4963617;28;20389;-89
2022/05/19 06:27:05;;;;;;;3.00;2.50;;;;;;;23.12;60.64;99957.53;4963677;28;20453;-89
2022/05/19 06:29:31;;;;;;;5.20;2.80;;;;;;;23.14;60.97;99949.97;4963772;28;20018;-89
2022/05/19 06:31:57;;;;;;;2.88;2.33;;;;;;;23.19;61.01;99950.19;4963708;28;20026;-90
2022/05/19 06:34:22;;;;;;;2.55;2.33;;;;;;;23.24;60.54;99945.72;4963568;28;20435;-89
2022/05/19 06:36:47;;;;;;;3.08;2.15;;;;;;;23.24;60.45;99953.06;4978229;28;20058;-88
2022/05/19 06:39:16;;;;;;;2.78;2.50;;;;;;;23.28;60.51;99948.00;4956381;28;20074;-90
2022/05/19 06:48:33;;;;;;;7.38;3.20;;;;;;;23.26;61.29;99940.03;4968338;28;20077;-89
2022/05/19 06:50:58;;;;;;;3.10;2.80;;;;;;;23.26;61.87;99945.50;4977304;28;20026;-90
2022/05/19 06:53:24;;;;;;;3.72;2.88;;;;;;;23.25;61.10;99943.84;4944155;28;20113;-91
2022/05/19 06:55:49;;;;;;;2.60;2.25;;;;;;;23.30;61.16;99943.16;4942966;28;20473;-88
2022/05/19 06:58:14;;;;;;;2.97;2.70;;;;;;;23.30;61.66;99943.16;4935081;29;20056;-90
2022/05/19 07:00:40;;;;;;;3.28;2.70;;;;;;;23.29;61.62;99942.34;4941125;29;20114;-89
2022/05/19 07:03:06;;;;;;;4.03;2.30;;;;;;;23.33;62.05;99938.09;4925060;29;20067;-89
2022/05/19 07:05:33;;;;;;;3.45;2.95;;;;;;;23.31;61.06;99929.31;4952068;28;20034;-89
2022/05/19 07:07:59;;;;;;;3.58;2.33;;;;;;;23.34;61.71;99937.03;4943831;28;20077;-88
2022/05/19 07:10:26;;;;;;;2.88;2.67;;;;;;;23.38;61.07;99934.69;4943991;28;20034;-91
2022/05/19 07:12:52;;;;;;;3.80;3.50;;;;;;;23.33;60.99;99935.38;4959922;28;20034;-87
2022/05/19 07:15:19;;;;;;;3.45;2.80;;;;;;;23.35;61.10;99937.88;4943418;28;20030;-88
2022/05/19 07:17:45;;;;;;;5.75;3.75;;;;;;;23.35;59.40;99932.41;4943754;28;20022;-88
2022/05/19 07:22:54;;;;;;;5.45;3.40;;;;;;;23.31;58.83;99937.50;4961945;28;20065;-88
2022/05/19 07:25:21;;;;;;;5.53;3.20;;;;;;;23.33;59.65;99929.06;4943628;28;20070;-88
2022/05/19 07:27:46;;;;;;;4.80;3.40;;;;;;;23.33;59.19;99924.47;4943409;28;20027;-88
2022/05/19 07:30:12;;;;;;;5.32;3.40;;;;;;;23.34;58.86;99928.03;4943458;28;20042;-89
2022/05/19 07:32:37;;;;;;;6.03;2.83;;;;;;;23.35;59.11;99919.59;4959403;28;20031;-88
2022/05/19 07:35:04;;;;;;;3.58;2.70;;;;;;;23.40;59.49;99922.50;4943297;28;20366;-88
2022/05/19 07:37:31;;;;;;;3.60;2.75;;;;;;;23.42;59.50;99922.28;4943357;28;20035;-88
2022/05/19 07:39:56;;;;;;;4.47;2.90;;;;;;;23.48;60.01;99919.50;4943496;28;20039;-88
2022/05/19 07:42:21;;;;;;;3.50;2.65;;;;;;;23.51;59.72;99919.06;4942904;28;20027;-88
2022/05/19 07:44:47;;;;;;;4.82;2.95;;;;;;;23.52;59.28;99919.88;4958758;28;20054;-88
2022/05/19 07:47:14;;;;;;;4.13;2.95;;;;;;;23.52;59.09;99909.78;4958755;28;20059;-88
2022/05/19 07:49:40;;;;;;;4.05;2.58;;;;;;;23.54;59.50;99907.69;4942826;28;20023;-88
2022/05/19 07:52:05;;;;;;;3.50;2.65;;;;;;;23.56;59.28;99910.22;4942709;28;20026;-90
2022/05/19 07:54:31;;;;;;;4.40;2.92;;;;;;;23.55;59.45;99911.28;4942592;28;20027;-88
2022/05/19 07:56:56;;;;;;;3.45;2.70;;;;;;;23.56;59.59;99910.22;4958232;28;20461;-89
2022/05/19 07:59:22;;;;;;;3.00;2.60;;;;;;;23.58;59.34;99908.09;4942536;28;20042;-88
2022/05/19 08:01:48;;;;;;;3.60;2.85;;;;;;;23.61;59.95;99915.00;4942524;28;20050;-87
2022/05/19 08:04:15;;;;;;;4.70;2.95;;;;;;;23.59;58.76;99908.94;4957733;28;20058;-88
2022/05/19 08:06:41;;;;;;;2.60;2.40;;;;;;;23.60;59.66;99903.25;4941896;28;20019;-88
2022/05/19 08:11:51;;;;;;;3.78;2.40;;;;;;;23.67;59.02;99895.03;4960928;28;20038;-89
2022/05/19 08:17:01;;;;;;;3.20;2.67;;;;;;;23.73;59.97;99891.38;4958992;28;20113;-88
2022/05/19 08:19:27;;;;;;;2.60;2.28;;;;;;;23.74;61.02;99884.88;4933183;29;20129;-87
2022/05/19 08:21:52;;;;;;;2.53;2.25;;;;;;;23.77;61.69;99884.41;4933868;29;20030;-87
2022/05/19 08:24:17;;;;;;;5.03;2.75;;;;;;;23.75;59.23;99878.34;4957583;28;20042;-88
2022/05/19 08:26:42;;;;;;;3.25;2.42;;;;;;;23.73;58.54;99877.72;4941608;28;20018;-89
2022/05/19 08:29:08;;;;;;;2.45;2.10;;;;;;;23.74;60.10;99874.78;4938551;29;20035;-87
2022/05/19 08:31:33;;;;;;;3.60;2.42;;;;;;;23.78;61.14;99873.25;4928423;28;20043;-87
2022/05/19 08:33:59;;;;;;;4.53;2.53;;;;;;;23.79;60.18;99872.19;4941127;28;20035;-87
2022/05/19 08:36:26;;;;;;;2.97;2.67;;;;;;;23.79;59.67;99876.81;4957506;28;20497;-88
2022/05/19 08:38:51;;;;;;;2.80;2.50;;;;;;;23.79;60.59;99865.91;4930563;28;20038;-88
2022/05/19 08:41:35;;;;;;;2.72;2.42;;;;;;;23.83;61.39;99867.94;4938284;28;20473;-88
2022/05/19 08:44:05;;;;;;;2.75;2.20;;;;;;;23.85;61.55;99865.81;4963701;28;20027;-88
2022/05/19 08:46:41;;;;;;;4.70;2.53;;;;;;;23.88;59.68;99861.81;4922997;29;20023;-88
2022/05/19 08:49:28;;;;;;;2.90;2.42;;;;;;;23.85;55.60;99854.91;4922808;29;20323;-88
2022/05/19 08:52:04;;;;;;;2.78;2.40;;;;;;;23.85;57.51;99859.53;4938460;29;20067;-88
2022/05/19 08:54:31;;;;;;;4.18;2.40;;;;;;;23.86;57.08;99855.72;4938326;29;20485;-86
2022/05/19 08:57:23;;;;;;;2.70;2.30;;;;;;;23.85;57.92;99854.91;4938438;29;20038;-91
2022/05/19 08:59:51;;;;;;;3.97;2.30;;;;;;;23.87;58.01;99851.94;4938999;29;20027;-90
2022/05/19 09:02:25;;;;;;;3.42;2.80;;;;;;;23.91;58.62;99841.41;4938875;29;20023;-91
2022/05/19 09:04:53;;;;;;;4.63;2.50;;;;;;;23.92;60.25;99843.91;4923428;29;20034;-91
2022/05/19 09:10:40;;;;;;;2.92;2.60;;;;;;;23.95;57.58;99824.31;4956032;29;20066;-90
2022/05/19 09:13:31;;;;;;;2.85;2.58;;;;;;;23.94;57.73;99819.91;4923694;29;20063;-91
2022/05/19 09:15:59;;;;;;;2.83;2.15;;;;;;;23.95;59.80;99815.28;4915382;29;20435;-88
2022/05/19 09:18:34;;;;;;;3.20;2.85;;;;;;;23.99;56.76;99811.03;4922692;29;20019;-88
2022/05/19 09:21:02;;;;;;;2.78;2.25;;;;;;;23.95;56.91;99797.00;4958384;28;20023;-88
2022/05/19 09:23:27;;;;;;;3.78;2.33;;;;;;;23.97;58.53;99796.75;4937959;29;20063;-88
2022/05/19 09:25:59;;;;;;;2.75;2.05;;;;;;;23.98;59.24;99793.81;4925675;29;20042;-87
2022/05/19 09:28:26;;;;;;;4.43;2.15;;;;;;;24.03;60.43;99795.84;4925718;29;20130;-87
2022/05/19 09:30:54;;;;;;;3.72;2.53;;;;;;;24.05;59.38;99794.53;4925787;29;20023;-88
2022/05/19 09:33:35;;;;;;;4.80;2.40;;;;;;;24.06;59.40;99792.66;4925905;29;20066;-89
2022/05/19 09:36:08;;;;;;;3.10;2.70;;;;;;;24.06;57.85;99800.84;4925689;29;20066;-88
2022/05/19 09:38:37;;;;;;;3.45;2.22;;;;;;;24.09;60.08;99800.38;4941936;29;20473;-88
2022/05/19 09:41:08;;;;;;;6.25;2.22;;;;;;;24.10;61.08;99796.59;4925553;29;20066;-88
2022/05/19 09:43:37;;;;;;;3.65;2.80;;;;;;;24.13;59.04;99807.94;4925861;29;20358;-88
2022/05/19 09:46:14;;;;;;;3.40;2.70;;;;;;;24.15;60.10;99805.81;4925597;29;20046;-88
2022/05/19 09:49:03;;;;;;;2.25;2.10;;;;;;;24.17;58.81;99802.84;4925580;29;20503;-90
2022/05/19 09:51:42;;;;;;;2.80;2.28;;;;;;;24.18;60.38;99797.13;4925830;29;20086;-90
2022/05/19 09:54:12;;;;;;;2.50;2.30;;;;;;;24.17;60.52;99798.19;4943235;28;20074;-88
2022/05/19 09:56:44;;;;;;;2.72;2.40;;;;;;;24.21;60.59;99792.28;4961347;28;20461;-88
2022/05/19 09:59:21;;;;;;;2.60;2.40;;;;;;;24.23;60.58;99787.41;4960698;28;20054;-88
2022/05/19 10:01:48;;;;;;;2.40;2.20;;;;;;;24.23;61.58;99777.31;4943682;28;20034;-87
2022/05/19 10:04:18;;;;;;;5.28;2.45;;;;;;;24.24;60.59;99778.97;4954754;28;20041;-87
2022/05/19 10:06:49;;;;;;;4.40;2.70;;;;;;;24.28;59.79;99782.13;4959694;28;20023;-87
2022/05/19 10:09:30;;;;;;;3.72;2.55;;;;;;;24.32;59.80;99777.84;4959517;28;20469;-88
2022/05/19 10:12:08;;;;;;;4.75;2.60;;;;;;;24.34;58.83;99773.81;4959975;28;20124;-88
2022/05/19 10:14:35;;;;;;;2.67;2.47;;;;;;;24.36;58.97;99776.31;4959503;28;20110;-88
2022/05/19 10:17:19;;;;;;;3.03;2.42;;;;;;;24.36;59.65;99765.38;4959515;28;20118;-88
2022/05/19 10:20:09;;;;;;;2.90;2.30;;;;;;;24.38;60.41;99763.25;4959830;28;20041;-88
2022/05/19 10:22:54;;;;;;;3.20;1.95;;;;;;;24.39;61.13;99757.53;4959508;28;20473;-88
2022/05/19 10:25:45;;;;;;;4.38;2.47;;;;;;;24.45;58.02;99758.50;4940718;29;20043;-86
2022/05/19 10:31:21;;;;;;;3.40;2.33;;;;;;;24.51;60.95;99754.84;4957140;28;20083;-88
2022/05/19 10:34:07;;;;;;;4.03;2.33;;;;;;;24.49;60.68;99746.88;4924176;29;20055;-87
2022/05/19 10:36:38;;;;;;;3.95;2.40;;;;;;;24.50;59.63;99744.97;4940324;29;20055;-89
2022/05/19 10:39:28;;;;;;;2.97;2.00;;;;;;;24.55;59.03;99744.25;4940006;29;20465;-88
2022/05/19 10:42:12;;;;;;;2.38;2.00;;;;;;;24.50;59.27;99747.69;4937809;29;20039;-88
2022/05/19 10:44:48;;;;;;;3.60;2.08;;;;;;;24.51;60.19;99749.38;4921088;29;20051;-86
2022/05/19 10:47:28;;;;;;;4.85;2.30;;;;;;;24.54;61.43;99765.31;4937359;29;20035;-85
2022/05/19 10:50:17;;;;;;;3.22;2.00;;;;;;;24.56;59.81;99759.59;4920057;29;20031;-86
2022/05/19 10:53:01;;;;;;;2.83;2.20;;;;;;;24.59;59.67;99751.78;4919936;29;20038;-86
2022/05/19 10:56:03;;;;;;;2.55;2.35;;;;;;;24.65;58.75;99750.03;4919829;29;20099;-86
2022/05/19 10:59:03;;;;;;;3.50;2.13;;;;;;;24.67;57.49;99751.47;4919770;29;20035;-85
2022/05/19 11:01:49;;;;;;;3.13;2.20;;;;;;;24.71;58.76;99744.44;4919968;29;20390;-86
2022/05/19 11:04:36;;;;;;;3.78;2.10;;;;;;;24.72;56.43;99737.91;4919500;29;20083;-86
2022/05/19 11:07:26;;;;;;;2.78;2.08;;;;;;;24.75;59.45;99736.59;4919637;29;20027;-85
2022/05/19 11:10:03;;;;;;;4.35;2.63;;;;;;;24.80;57.96;99751.22;4936874;29;20023;-85
2022/05/19 11:12:43;;;;;;;3.00;2.00;;;;;;;24.85;56.75;99745.06;4935597;29;20026;-84
2022/05/19 11:15:16;;;;;;;2.97;2.20;;;;;;;24.88;58.66;99746.47;4936556;29;20031;-85
2022/05/19 11:18:00;;;;;;;2.33;2.10;;;;;;;24.89;57.60;99738.03;4919435;29;20091;-85
2022/05/19 11:20:32;;;;;;;2.47;2.28;;;;;;;24.93;56.75;99755.66;4919267;29;20039;-85
2022/05/19 11:23:09;;;;;;;3.65;2.53;;;;;;;25.00;57.00;99741.88;4920564;29;20030;-86
2022/05/19 11:28:41;;;;;;;2.65;2.20;;;;;;;25.17;54.86;99736.56;4940001;29;20089;-85
2022/05/19 11:31:31;;;;;;;2.60;2.20;;;;;;;25.14;58.02;99729.66;4938312;29;20466;-82
2022/05/19 11:33:58;;;;;;;5.00;2.20;;;;;;;25.16;57.50;99730.25;4954198;29;20059;-83
2022/05/19 11:36:39;;;;;;;2.28;2.08;;;;;;;25.15;58.28;99723.09;4950640;28;20045;-83
2022/05/19 11:39:25;;;;;;;2.47;2.03;;;;;;;25.17;57.12;99725.59;4938112;28;20187;-83
2022/05/19 11:41:54;;;;;;;3.15;2.00;;;;;;;25.19;54.62;99716.06;4933892;28;20019;-83
2022/05/19 11:44:23;;;;;;;3.65;2.17;;;;;;;25.23;55.78;99717.25;4941778;28;20422;-84
2022/05/19 11:46:57;;;;;;;2.58;2.22;;;;;;;25.22;54.37;99699.16;4940894;28;20027;-83
2022/05/19 11:55:20;;;;;;;2.47;2.28;;;;;;;25.30;57.29;99700.69;4965418;28;20034;-83
2022/05/19 11:58:04;;;;;;;;;;;;;;;25.30;57.07;99706.19;4941385;28;20035;-83
2022/05/19 12:00:33;;;;;;;3.22;2.20;;;;;;;25.31;55.73;99697.72;4951668;28;20009;-84
2022/05/19 12:03:15;;;;;;;2.95;2.17;;;;;;;25.31;56.44;99697.72;4936992;29;20038;-84
2022/05/19 12:06:00;;;;;;;2.83;2.08;;;;;;;25.35;57.12;99690.69;4939464;28;20034;-85
2022/05/19 12:08:34;;;;;;;2.92;2.47;;;;;;;25.38;57.82;99686.63;4940804;28;20504;-84
2022/05/19 12:11:37;;;;;;;5.15;2.55;;;;;;;25.36;56.67;99688.78;4934981;29;20537;-84
2022/05/19 12:14:12;;;;;;;2.30;2.05;;;;;;;25.32;58.55;99707.59;4938536;29;20641;-84
2022/05/19 12:17:01;;;;;;;2.53;2.10;;;;;;;25.30;58.62;99728.09;4938567;29;20031;-85
2022/05/19 12:19:48;;;;;;;3.70;2.22;;;;;;;25.30;56.77;99745.34;4945845;28;20051;-86